Time,TemperatureF,DewpointF,PressureIn,WindDirection,WindDirectionDegrees,WindSpeedMPH,WindSpeedGustMPH,Humidity,HourlyPrecipIn,Conditions,Clouds,dailyrainin,SoftwareType,DateUTC
2013-07-31 00:08:00,74.5,70.0,30.14,SSE,153,0.0,-999.0,86,-99.99,,,0.00,weatherlink.com 1.10,2013-07-31 04:08:00,
2013-07-31 00:11:00,74.5,70.0,30.14,SSE,153,0.0,-999.0,86,-99.99,,,0.00,weatherlink.com 1.10,2013-07-31 04:11:00,
2013-07-31 00:26:00,74.4,70.0,30.14,SSE,153,0.0,-999.0,86,-99.99,,,0.00,weatherlink.com 1.10,2013-07-31 04:26:00,
2013-07-31 00:41:00,74.2,70.0,30.14,SSE,153,0.0,-999.0,87,-99.99,,,0.00,weatherlink.com 1.10,2013-07-31 04:41:00,
2013-07-31 01:07:00,74.2,70.0,30.14,SSE,153,0.0,-999.0,87,-99.99,,,0.00,weatherlink.com 1.10,2013-07-31 05:07:00,
2013-07-31 01:26:00,73.8,70.0,30.14,SSE,153,0.0,-999.0,88,-99.99,,,0.00,weatherlink.com 1.10,2013-07-31 05:26:00,
2013-07-31 01:41:00,73.5,70.0,30.13,SSE,153,0.0,-999.0,88,-99.99,,,0.00,weatherlink.com 1.10,2013-07-31 05:41:00,
2013-07-31 02:07:00,73.5,70.0,30.13,SSE,153,0.0,-999.0,88,-99.99,,,0.00,weatherlink.com 1.10,2013-07-31 06:07:00,
2013-07-31 02:26:00,73.2,70.0,30.13,SSE,153,0.0,-999.0,89,-99.99,,,0.00,weatherlink.com 1.10,2013-07-31 06:26:00,
2013-07-31 03:07:00,73.1,70.0,30.12,SSE,153,0.0,-999.0,90,-99.99,,,0.00,weatherlink.com 1.10,2013-07-31 07:07:00,
2013-07-31 03:26:00,72.8,70.0,30.12,SSE,153,0.0,-999.0,90,-99.99,,,0.00,weatherlink.com 1.10,2013-07-31 07:26:00,
2013-07-31 03:41:00,72.8,70.0,30.12,SSE,153,0.0,-999.0,91,-99.99,,,0.00,weatherlink.com 1.10,2013-07-31 07:41:00,
2013-07-31 04:09:00,72.8,70.0,30.12,SSE,153,0.0,-999.0,91,-99.99,,,0.00,weatherlink.com 1.10,2013-07-31 08:09:00,
2013-07-31 04:26:00,72.8,70.0,30.11,SSE,153,0.0,-999.0,91,-99.99,,,0.00,weatherlink.com 1.10,2013-07-31 08:26:00,
2013-07-31 04:41:00,72.7,70.0,30.12,SSE,153,0.0,-999.0,91,-99.99,,,0.00,weatherlink.com 1.10,2013-07-31 08:41:00,
2013-07-31 05:07:00,72.7,70.0,30.12,SSE,153,0.0,-999.0,91,-99.99,,,0.00,weatherlink.com 1.10,2013-07-31 09:07:00,
2013-07-31 05:26:00,72.6,70.0,30.12,SSE,153,0.0,-999.0,92,-99.99,,,0.00,weatherlink.com 1.10,2013-07-31 09:26:00,
2013-07-31 05:41:00,72.6,70.0,30.12,SSE,153,0.0,-999.0,92,-99.99,,,0.00,weatherlink.com 1.10,2013-07-31 09:41:00,
2013-07-31 06:08:00,72.5,70.0,30.12,SSE,153,0.0,-999.0,92,-99.99,,,0.00,weatherlink.com 1.10,2013-07-31 10:08:00,
2013-07-31 06:11:00,72.4,70.0,30.13,SSE,153,0.0,-999.0,92,-99.99,,,0.00,weatherlink.com 1.10,2013-07-31 10:11:00,
2013-07-31 06:27:00,72.4,70.0,30.13,SSE,153,0.0,-999.0,93,-99.99,,,0.00,weatherlink.com 1.10,2013-07-31 10:27:00,
2013-07-31 06:41:00,72.4,70.0,30.13,SSE,153,0.0,-999.0,93,-99.99,,,0.00,weatherlink.com 1.10,2013-07-31 10:41:00,
2013-07-31 07:07:00,72.4,70.0,30.13,SSE,153,0.0,-999.0,93,-99.99,,,0.00,weatherlink.com 1.10,2013-07-31 11:07:00,
2013-07-31 07:26:00,72.4,70.0,30.13,SSE,153,0.0,-999.0,93,-99.99,,,0.00,weatherlink.com 1.10,2013-07-31 11:26:00,
2013-07-31 07:41:00,72.5,70.0,30.13,SSE,153,0.0,-999.0,93,-99.99,,,0.00,weatherlink.com 1.10,2013-07-31 11:41:00,
2013-07-31 08:07:00,72.5,70.0,30.13,SSE,153,0.0,-999.0,93,-99.99,,,0.00,weatherlink.com 1.10,2013-07-31 12:07:00,
2013-07-31 08:26:00,73.2,71.0,30.13,SSE,153,0.0,-999.0,93,-99.99,,,0.00,weatherlink.com 1.10,2013-07-31 12:26:00,
2013-07-31 08:41:00,73.4,71.0,30.13,SSE,153,0.0,-999.0,93,-99.99,,,0.00,weatherlink.com 1.10,2013-07-31 12:41:00,
2013-07-31 09:07:00,73.5,71.0,30.13,SSE,153,0.0,-999.0,93,-99.99,,,0.00,weatherlink.com 1.10,2013-07-31 13:07:00,
2013-07-31 09:26:00,74.6,72.0,30.13,SSE,153,0.0,-999.0,92,-99.99,,,0.00,weatherlink.com 1.10,2013-07-31 13:26:00,
2013-07-31 09:41:00,75.3,73.0,30.13,SSE,153,0.0,-999.0,91,-99.99,,,0.00,weatherlink.com 1.10,2013-07-31 13:41:00,
2013-07-31 10:09:00,75.3,73.0,30.14,SSE,153,0.0,-999.0,91,-99.99,,,0.00,weatherlink.com 1.10,2013-07-31 14:09:00,
2013-07-31 10:26:00,76.9,71.0,30.13,SSE,153,0.0,-999.0,82,-99.99,,,0.00,weatherlink.com 1.10,2013-07-31 14:26:00,
2013-07-31 10:41:00,77.4,72.0,30.13,SSE,153,0.0,-999.0,84,-99.99,,,0.00,weatherlink.com 1.10,2013-07-31 14:41:00,
2013-07-31 11:08:00,77.4,72.0,30.13,SSE,153,0.0,-999.0,84,-99.99,,,0.00,weatherlink.com 1.10,2013-07-31 15:08:00,
2013-07-31 11:26:00,78.8,73.0,30.13,SSE,153,0.0,-999.0,81,-99.99,,,0.00,weatherlink.com 1.10,2013-07-31 15:26:00,
2013-07-31 11:41:00,79.1,72.0,30.12,SSE,153,0.0,-999.0,79,-99.99,,,0.00,weatherlink.com 1.10,2013-07-31 15:41:00,
2013-07-31 11:56:00,79.1,71.0,30.12,SSE,153,0.0,-999.0,75,-99.99,,,0.00,weatherlink.com 1.10,2013-07-31 15:56:00,
2013-07-31 12:11:00,79.4,71.0,30.11,SSE,153,0.0,-999.0,75,-99.99,,,0.00,weatherlink.com 1.10,2013-07-31 16:11:00,
2013-07-31 12:39:00,79.5,71.0,30.11,SSE,153,0.0,-999.0,75,-99.99,,,0.00,weatherlink.com 1.10,2013-07-31 16:39:00,
2013-07-31 12:56:00,80.1,71.0,30.10,SSE,153,0.0,-999.0,74,-99.99,,,0.00,weatherlink.com 1.10,2013-07-31 16:56:00,
2013-07-31 13:39:00,80.5,72.0,30.09,SSE,153,0.0,-999.0,76,-99.99,,,0.00,weatherlink.com 1.10,2013-07-31 17:39:00,
2013-07-31 13:56:00,81.1,73.0,30.09,SSE,148,0.0,-999.0,75,-99.99,,,0.00,weatherlink.com 1.10,2013-07-31 17:56:00,
2013-07-31 14:11:00,81.0,74.0,30.08,SSE,148,0.0,-999.0,78,-99.99,,,0.00,weatherlink.com 1.10,2013-07-31 18:11:00,
2013-07-31 14:39:00,80.9,73.0,30.08,SSE,148,0.0,-999.0,78,-99.99,,,0.00,weatherlink.com 1.10,2013-07-31 18:39:00,
2013-07-31 14:56:00,80.8,73.0,30.07,SSE,148,0.0,-999.0,76,-99.99,,,0.00,weatherlink.com 1.10,2013-07-31 18:56:00,
2013-07-31 15:11:00,80.6,72.0,30.07,SSE,148,0.0,-999.0,76,-99.99,,,0.00,weatherlink.com 1.10,2013-07-31 19:11:00,
2013-07-31 15:39:00,80.6,73.0,30.06,SSE,148,0.0,-999.0,77,-99.99,,,0.00,weatherlink.com 1.10,2013-07-31 19:39:00,
2013-07-31 15:56:00,80.7,73.0,30.05,SSE,148,0.0,-999.0,78,-99.99,,,0.00,weatherlink.com 1.10,2013-07-31 19:56:00,
2013-07-31 16:11:00,80.5,73.0,30.04,SSE,148,0.0,-999.0,79,-99.99,,,0.00,weatherlink.com 1.10,2013-07-31 20:11:00,
2013-07-31 16:39:00,80.5,73.0,30.04,SSE,148,0.0,-999.0,77,-99.99,,,0.00,weatherlink.com 1.10,2013-07-31 20:39:00,
2013-07-31 16:56:00,81.2,73.0,30.03,SSE,148,0.0,-999.0,77,-99.99,,,0.00,weatherlink.com 1.10,2013-07-31 20:56:00,
2013-07-31 17:11:00,81.3,73.0,30.02,SSE,148,0.0,-999.0,76,-99.99,,,0.00,weatherlink.com 1.10,2013-07-31 21:11:00,
2013-07-31 17:39:00,81.3,74.0,30.02,SSE,148,1.0,-999.0,78,-99.99,,,0.00,weatherlink.com 1.10,2013-07-31 21:39:00,
2013-07-31 17:56:00,78.5,72.0,30.01,SSE,154,0.0,-999.0,80,-99.99,,,0.00,weatherlink.com 1.10,2013-07-31 21:56:00,
2013-07-31 18:11:00,77.7,71.0,30.01,SSE,154,0.0,-999.0,80,-99.99,,,0.00,weatherlink.com 1.10,2013-07-31 22:11:00,
2013-07-31 18:41:00,77.5,71.0,30.01,SSE,154,0.0,-999.0,80,-99.99,,,0.00,weatherlink.com 1.10,2013-07-31 22:41:00,
2013-07-31 18:56:00,76.7,72.0,30.01,SSE,154,0.0,-999.0,85,-99.99,,,0.00,weatherlink.com 1.10,2013-07-31 22:56:00,
2013-07-31 19:11:00,76.6,72.0,30.01,SSE,154,0.0,-999.0,85,-99.99,,,0.00,weatherlink.com 1.10,2013-07-31 23:11:00,
2013-07-31 19:38:00,76.6,72.0,30.01,SSE,154,0.0,-999.0,85,-99.99,,,0.00,weatherlink.com 1.10,2013-07-31 23:38:00,
2013-07-31 19:55:00,76.0,72.0,30.01,SSE,154,0.0,-999.0,87,-99.99,,,0.00,weatherlink.com 1.10,2013-07-31 23:55:00,
2013-07-31 20:10:00,75.8,72.0,30.01,SSE,154,0.0,-999.0,87,-99.99,,,0.00,weatherlink.com 1.10,2013-08-01 00:10:00,
2013-07-31 20:38:00,75.8,72.0,30.01,SSE,154,0.0,-999.0,87,-99.99,,,0.00,weatherlink.com 1.10,2013-08-01 00:38:00,
2013-07-31 20:55:00,75.4,72.0,30.00,SSE,154,0.0,-999.0,88,-99.99,,,0.00,weatherlink.com 1.10,2013-08-01 00:55:00,
2013-07-31 21:10:00,75.4,72.0,30.00,SSE,154,0.0,-999.0,88,-99.99,,,0.00,weatherlink.com 1.10,2013-08-01 01:10:00,
2013-07-31 21:38:00,75.5,72.0,30.01,SSE,154,0.0,-999.0,88,-99.99,,,0.00,weatherlink.com 1.10,2013-08-01 01:38:00,
2013-07-31 21:55:00,76.8,72.0,30.00,SSE,154,0.0,-999.0,84,-99.99,,,0.00,weatherlink.com 1.10,2013-08-01 01:55:00,
2013-07-31 22:10:00,77.2,72.0,30.01,SSE,154,0.0,-999.0,83,-99.99,,,0.00,weatherlink.com 1.10,2013-08-01 02:10:00,
2013-07-31 22:38:00,77.2,72.0,30.01,SSE,154,0.0,-999.0,83,-99.99,,,0.00,weatherlink.com 1.10,2013-08-01 02:38:00,
2013-07-31 22:55:00,77.2,72.0,30.00,SSE,161,0.0,-999.0,84,-99.99,,,0.00,weatherlink.com 1.10,2013-08-01 02:55:00,
2013-07-31 23:10:00,76.6,73.0,30.01,SSE,161,0.0,-999.0,87,-99.99,,,0.00,weatherlink.com 1.10,2013-08-01 03:10:00,
2013-07-31 23:38:00,76.4,73.0,30.00,SSE,161,0.0,-999.0,88,-99.99,,,0.00,weatherlink.com 1.10,2013-08-01 03:38:00,
2013-07-31 23:55:00,71.4,69.0,30.01,ENE,71,1.0,-999.0,92,-99.99,,,0.16,weatherlink.com 1.10,2013-08-01 03:55:00,